createdAt,value
2019-03-04T00:03:23.465Z,98661.07
2019-03-04T00:08:48.234Z,98660.55
2019-03-04T00:14:16.873Z,98663.45
2019-03-04T00:19:45.698Z,98661.45
2019-03-04T00:25:07.413Z,98665.75
2019-03-04T00:30:30.931Z,98652.34
2019-03-04T00:35:52.572Z,98658.30
2019-03-04T00:41:14.826Z,98654.78
2019-03-04T00:46:36.699Z,98642.30
2019-03-04T00:51:58.388Z,98646.68
2019-03-04T00:57:20.891Z,98632.03
2019-03-04T01:02:46.428Z,98640.50
2019-03-04T01:08:08.312Z,98628.30
2019-03-04T01:13:29.581Z,98621.40
2019-03-04T01:18:51.541Z,98623.95
2019-03-04T01:24:17.993Z,98629.37
2019-03-04T01:29:40.281Z,98624.17
2019-03-04T01:35:02.552Z,98615.70
2019-03-04T01:40:24.256Z,98614.87
2019-03-04T01:45:49.216Z,98611.48
2019-03-04T01:51:11.982Z,98607.78
2019-03-04T01:56:36.480Z,98598.29
2019-03-04T02:02:08.895Z,98606.84
2019-03-04T02:07:30.339Z,98605.64
2019-03-04T02:12:53.247Z,98603.48
2019-03-04T02:18:16.950Z,98601.97
2019-03-04T02:23:40.600Z,98619.91
2019-03-04T02:29:02.237Z,98610.68
2019-03-04T02:34:24.570Z,98611.16
2019-03-04T02:39:48.072Z,98599.39
2019-03-04T02:45:14.367Z,98596.36
2019-03-04T02:50:38.133Z,98600.44
2019-03-04T02:55:59.328Z,98591.97
2019-03-04T03:01:33.536Z,98600.80
2019-03-04T03:06:54.665Z,98589.98
2019-03-04T03:12:17.263Z,98595.32
2019-03-04T03:17:39.549Z,98591.58
2019-03-04T03:23:02.320Z,98590.56
2019-03-04T03:28:25.712Z,98586.30
2019-03-04T03:33:48.146Z,98595.16
2019-03-04T03:39:09.702Z,98584.50
2019-03-04T03:44:30.973Z,98583.00
2019-03-04T03:49:51.892Z,98588.86
2019-03-04T03:55:15.886Z,98585.34
2019-03-04T04:00:37.713Z,98580.69
2019-03-04T04:06:00.545Z,98573.24
2019-03-04T04:11:24.211Z,98567.86
2019-03-04T04:16:45.754Z,98574.05
2019-03-04T04:22:08.208Z,98570.05
2019-03-04T04:27:30.636Z,98572.27
2019-03-04T04:32:54.254Z,98568.63
2019-03-04T04:38:17.074Z,98556.52
2019-03-04T04:43:39.972Z,98558.27
2019-03-04T04:49:03.285Z,98556.88
2019-03-04T04:54:24.895Z,98563.48
2019-03-04T04:59:48.322Z,98554.38
2019-03-04T05:05:11.997Z,98559.73
2019-03-04T05:10:38.397Z,98549.44
2019-03-04T05:16:02.293Z,98573.62
2019-03-04T05:21:24.776Z,98554.27
2019-03-04T05:26:46.938Z,98543.68
2019-03-04T05:32:11.431Z,98547.80
2019-03-04T05:37:33.473Z,98554.70
2019-03-04T05:42:57.601Z,98522.90
2019-03-04T05:48:20.822Z,98552.07
2019-03-04T05:53:42.699Z,98552.08
2019-03-04T05:59:04.443Z,98551.48
2019-03-04T06:04:29.674Z,98556.23
2019-03-04T06:09:51.158Z,98556.09
2019-03-04T06:15:15.356Z,98549.33
2019-03-04T06:20:37.324Z,98555.17
2019-03-04T06:26:12.072Z,98556.53
2019-03-04T06:31:36.367Z,98560.31
2019-03-04T06:36:57.277Z,98567.83
2019-03-04T06:42:21.428Z,98567.63
2019-03-04T06:47:42.180Z,98576.20
2019-03-04T06:53:03.316Z,98571.82
2019-03-04T06:58:26.427Z,98575.61
2019-03-04T07:03:56.535Z,98570.66
2019-03-04T07:09:24.289Z,98572.70
2019-03-04T07:14:46.744Z,98567.80
2019-03-04T07:20:11.059Z,98580.79
2019-03-04T07:25:34.641Z,98571.74
2019-03-04T07:30:57.204Z,98570.85
2019-03-04T07:36:19.507Z,98569.30
2019-03-04T07:47:32.288Z,98553.62
2019-03-04T07:52:57.183Z,98548.86
2019-03-04T07:58:19.502Z,98550.94
2019-03-04T08:03:50.331Z,98553.50
2019-03-04T08:09:45.561Z,98467.91
2019-03-04T08:15:30.321Z,98552.45
2019-03-04T08:20:54.349Z,98553.94
2019-03-04T08:26:15.778Z,98552.45
2019-03-04T08:31:36.987Z,98552.27
2019-03-04T08:37:00.180Z,98550.75
2019-03-04T08:42:22.717Z,98548.34
2019-03-04T08:47:48.676Z,98532.17
2019-03-04T09:00:19.738Z,98533.51
2019-03-04T09:05:46.335Z,98526.84
2019-03-04T09:11:09.416Z,98528.66
2019-03-04T09:16:31.398Z,98533.27
2019-03-04T09:21:54.309Z,98520.77
2019-03-04T09:27:16.887Z,98456.38
2019-03-04T09:32:41.265Z,98499.25
2019-03-04T09:38:04.771Z,98498.14
2019-03-04T09:43:32.960Z,98495.50
2019-03-04T09:48:59.107Z,98503.66
2019-03-04T09:54:20.353Z,98493.36
2019-03-04T09:59:41.953Z,98491.83
2019-03-04T10:05:47.257Z,98477.50
2019-03-04T10:11:47.969Z,98473.98
2019-03-04T10:17:18.869Z,98456.89
2019-03-04T10:23:16.619Z,98459.16
2019-03-04T10:36:11.553Z,98445.91
2019-03-04T10:42:08.611Z,98437.13
2019-03-04T10:48:32.971Z,98427.41
2019-03-04T10:54:01.543Z,98421.15
2019-03-04T10:59:29.417Z,98399.00
2019-03-04T11:05:18.462Z,98390.72
2019-03-04T11:10:48.223Z,98381.34
2019-03-04T11:16:15.943Z,98296.44
2019-03-04T11:21:38.927Z,98352.44
2019-03-04T11:27:01.867Z,98338.67
2019-03-04T11:32:28.261Z,98330.56
2019-03-04T11:37:53.015Z,98331.14
2019-03-04T11:43:17.436Z,98313.19
2019-03-04T11:48:39.217Z,98311.78
2019-03-04T11:54:00.725Z,98290.42
2019-03-04T11:59:23.292Z,98296.16
2019-03-04T12:04:44.816Z,98287.14
2019-03-04T12:10:11.499Z,98280.27
2019-03-04T12:15:36.302Z,98271.08
2019-03-04T12:20:58.361Z,98258.14
2019-03-04T12:26:21.454Z,98261.08
2019-03-04T12:31:59.195Z,98252.84
2019-03-04T12:37:20.509Z,98232.52
2019-03-04T12:42:43.150Z,98223.52
2019-03-04T12:48:04.896Z,98222.88
2019-03-04T12:53:36.881Z,98212.56
2019-03-04T12:58:51.209Z,98207.34
2019-03-04T13:04:14.052Z,98204.31
2019-03-04T13:09:35.674Z,98200.82
2019-03-04T13:14:58.618Z,98198.17
2019-03-04T13:20:28.177Z,98206.88
2019-03-04T13:25:49.635Z,98192.48
2019-03-04T13:31:11.344Z,98196.06
2019-03-04T13:36:34.358Z,98186.77
2019-03-04T13:41:56.700Z,98171.30
2019-03-04T13:47:19.493Z,98179.68
2019-03-04T13:52:41.250Z,98166.07
2019-03-04T13:58:07.462Z,98143.66
2019-03-04T14:04:08.266Z,98144.44
2019-03-04T14:09:31.213Z,98141.42
2019-03-04T14:14:53.969Z,98135.66
2019-03-04T14:20:16.592Z,98125.50
2019-03-04T14:25:39.793Z,98116.21
2019-03-04T14:31:04.398Z,98112.64
2019-03-04T14:36:26.226Z,98106.47
2019-03-04T14:41:48.011Z,98097.55
2019-03-04T14:47:10.164Z,98085.89
2019-03-04T14:52:31.793Z,98085.89
2019-03-04T14:57:54.259Z,98081.52
2019-03-04T15:03:23.238Z,98073.92
2019-03-04T15:08:41.142Z,98074.57
2019-03-04T15:14:03.537Z,98076.31
2019-03-04T15:19:25.367Z,98071.88
2019-03-04T15:24:47.094Z,98070.14
2019-03-04T15:30:12.134Z,98063.49
2019-03-04T15:35:37.564Z,98074.27
2019-03-04T15:41:01.070Z,98062.22
2019-03-04T15:46:23.305Z,98060.06
2019-03-04T15:51:51.980Z,98062.80
2019-03-04T15:58:20.653Z,98061.44
2019-03-04T16:03:59.292Z,98063.12
2019-03-04T16:09:27.241Z,98055.17
2019-03-04T16:15:12.650Z,98057.01
2019-03-04T16:20:37.940Z,98054.61
2019-03-04T16:26:05.253Z,98063.62
2019-03-04T16:31:27.395Z,98068.48
2019-03-04T16:36:49.738Z,98074.64
2019-03-04T16:42:11.936Z,98071.19
2019-03-04T16:47:33.082Z,98077.77
2019-03-04T16:52:55.453Z,98088.66
2019-03-04T16:58:37.424Z,98084.11
2019-03-04T17:04:00.807Z,98071.52
2019-03-04T17:09:22.299Z,98074.61
2019-03-04T17:14:45.397Z,98067.20
2019-03-04T17:20:09.454Z,98064.31
2019-03-04T17:25:31.559Z,98078.06
2019-03-04T17:30:52.939Z,98078.63
2019-03-04T17:36:15.264Z,98083.27
2019-03-04T17:41:37.144Z,98070.59
2019-03-04T17:47:02.742Z,98073.22
2019-03-04T17:52:29.365Z,98076.59
2019-03-04T17:57:59.214Z,98068.09
2019-03-04T18:03:43.291Z,98071.06
2019-03-04T18:09:07.955Z,98057.19
2019-03-04T18:14:29.952Z,98064.84
2019-03-04T18:19:52.191Z,97932.57
2019-03-04T18:25:48.527Z,98062.63
2019-03-04T18:31:51.031Z,98061.70
2019-03-04T18:37:33.326Z,98084.60
2019-03-04T18:43:26.424Z,98096.23
2019-03-04T18:48:56.355Z,98089.47
2019-03-04T18:54:20.292Z,98088.32
2019-03-04T18:59:42.582Z,98088.32
2019-03-04T19:05:05.334Z,98090.75
2019-03-04T19:10:29.308Z,98102.83
2019-03-04T19:15:52.307Z,98102.16
2019-03-04T19:21:14.939Z,98105.67
2019-03-04T19:26:37.225Z,98094.44
2019-03-04T19:31:59.248Z,98097.59
2019-03-04T19:37:32.097Z,98102.45
2019-03-04T19:43:10.553Z,98104.58
2019-03-04T19:48:34.630Z,98096.27
2019-03-04T19:53:59.443Z,98101.11
2019-03-04T19:59:22.051Z,98091.03
2019-03-04T20:04:47.873Z,98104.56
2019-03-04T20:10:11.119Z,98099.34
2019-03-04T20:15:37.928Z,98097.03
2019-03-04T20:20:59.556Z,98098.44
2019-03-04T20:26:21.881Z,98105.90
2019-03-04T20:31:46.382Z,98088.56
2019-03-04T20:37:10.728Z,98094.34
2019-03-04T20:42:34.938Z,98086.17
2019-03-04T20:47:59.708Z,98087.66
2019-03-04T20:53:24.271Z,98081.70
2019-03-04T20:58:47.921Z,98082.07
2019-03-04T21:04:21.827Z,98083.96
2019-03-04T21:09:47.035Z,98083.02
2019-03-04T21:15:11.048Z,98080.94
2019-03-04T21:20:33.030Z,98077.91
2019-03-04T21:26:09.413Z,98074.80
2019-03-04T21:31:50.676Z,98076.29
2019-03-04T21:37:22.177Z,98067.39
2019-03-04T21:43:01.268Z,98074.56
2019-03-04T21:48:37.542Z,98087.20
2019-03-04T21:54:00.572Z,98063.17
2019-03-04T21:59:24.875Z,98082.60
2019-03-04T22:04:47.040Z,98077.94
2019-03-04T22:10:12.043Z,98074.84
2019-03-04T22:15:34.728Z,98078.13
2019-03-04T22:20:56.921Z,98060.89
2019-03-04T22:26:21.918Z,98048.83
2019-03-04T22:31:50.102Z,98065.61
2019-03-04T22:37:12.294Z,98049.91
2019-03-04T22:42:34.597Z,98052.42
2019-03-04T22:47:57.535Z,98044.03
2019-03-04T22:53:19.634Z,98045.52
2019-03-04T22:58:44.018Z,98035.71
2019-03-04T23:04:35.842Z,98036.56
2019-03-04T23:10:22.072Z,98031.14
2019-03-04T23:15:46.121Z,98042.36
2019-03-04T23:21:14.083Z,98032.47
2019-03-04T23:26:35.700Z,98031.42
2019-03-04T23:32:05.528Z,98041.61
2019-03-04T23:37:27.966Z,98034.87
2019-03-04T23:42:49.486Z,98026.20
2019-03-04T23:48:13.561Z,98031.33
2019-03-04T23:53:35.350Z,98021.71
2019-03-04T23:58:57.586Z,98017.14
